sensor_id;sensor_type;location;lat;lon;timestamp;P1;durP1;ratioP1;P2;durP2;ratioP2
21868;SDS011;11099;41.564;23.296;2022-07-06T00:01:00;9.60;;;8.70;;
21868;SDS011;11099;41.564;23.296;2022-07-06T00:03:25;10.75;;;9.70;;
21868;SDS011;11099;41.564;23.296;2022-07-06T00:05:51;10.15;;;8.93;;
21868;SDS011;11099;41.564;23.296;2022-07-06T00:08:16;10.10;;;9.10;;
21868;SDS011;11099;41.564;23.296;2022-07-06T00:10:42;10.00;;;9.02;;
21868;SDS011;11099;41.564;23.296;2022-07-06T00:13:08;11.23;;;9.40;;
21868;SDS011;11099;41.564;23.296;2022-07-06T00:15:34;10.13;;;9.25;;
21868;SDS011;11099;41.564;23.296;2022-07-06T00:18:00;15.82;;;10.88;;
21868;SDS011;11099;41.564;23.296;2022-07-06T00:20:25;10.93;;;9.85;;
21868;SDS011;11099;41.564;23.296;2022-07-06T00:22:51;12.63;;;9.43;;
21868;SDS011;11099;41.564;23.296;2022-07-06T00:25:17;9.80;;;9.00;;
21868;SDS011;11099;41.564;23.296;2022-07-06T00:27:42;13.85;;;9.30;;
21868;SDS011;11099;41.564;23.296;2022-07-06T00:30:08;11.07;;;9.38;;
21868;SDS011;11099;41.564;23.296;2022-07-06T00:32:33;9.98;;;9.13;;
21868;SDS011;11099;41.564;23.296;2022-07-06T00:34:59;11.48;;;9.65;;
21868;SDS011;11099;41.564;23.296;2022-07-06T00:37:24;9.65;;;8.88;;
21868;SDS011;11099;41.564;23.296;2022-07-06T00:39:50;14.15;;;9.60;;
21868;SDS011;11099;41.564;23.296;2022-07-06T00:42:16;10.57;;;9.57;;
21868;SDS011;11099;41.564;23.296;2022-07-06T00:44:41;9.95;;;9.05;;
21868;SDS011;11099;41.564;23.296;2022-07-06T00:47:07;10.43;;;9.43;;
21868;SDS011;11099;41.564;23.296;2022-07-06T00:49:33;10.25;;;9.30;;
21868;SDS011;11099;41.564;23.296;2022-07-06T00:52:17;10.10;;;9.30;;
21868;SDS011;11099;41.564;23.296;2022-07-06T00:54:43;9.77;;;8.98;;
21868;SDS011;11099;41.564;23.296;2022-07-06T00:57:10;10.38;;;9.48;;
21868;SDS011;11099;41.564;23.296;2022-07-06T00:59:36;9.70;;;8.73;;
21868;SDS011;11099;41.564;23.296;2022-07-06T01:02:01;9.23;;;8.43;;
21868;SDS011;11099;41.564;23.296;2022-07-06T01:04:27;10.07;;;9.05;;
21868;SDS011;11099;41.564;23.296;2022-07-06T01:06:53;9.60;;;8.57;;
21868;SDS011;11099;41.564;23.296;2022-07-06T01:09:19;10.18;;;8.85;;
21868;SDS011;11099;41.564;23.296;2022-07-06T01:11:44;9.85;;;8.98;;
21868;SDS011;11099;41.564;23.296;2022-07-06T01:14:11;9.65;;;8.75;;
21868;SDS011;11099;41.564;23.296;2022-07-06T01:16:37;8.80;;;7.85;;
21868;SDS011;11099;41.564;23.296;2022-07-06T01:19:03;8.93;;;8.13;;
21868;SDS011;11099;41.564;23.296;2022-07-06T01:21:28;9.00;;;8.20;;
21868;SDS011;11099;41.564;23.296;2022-07-06T01:23:54;9.55;;;8.65;;
21868;SDS011;11099;41.564;23.296;2022-07-06T01:26:20;12.45;;;8.73;;
21868;SDS011;11099;41.564;23.296;2022-07-06T01:28:46;10.50;;;9.20;;
21868;SDS011;11099;41.564;23.296;2022-07-06T01:31:20;11.25;;;8.95;;
21868;SDS011;11099;41.564;23.296;2022-07-06T01:33:50;10.30;;;9.50;;
21868;SDS011;11099;41.564;23.296;2022-07-06T01:36:17;10.38;;;9.30;;
21868;SDS011;11099;41.564;23.296;2022-07-06T01:38:50;9.65;;;8.73;;
21868;SDS011;11099;41.564;23.296;2022-07-06T01:41:22;12.43;;;9.65;;
21868;SDS011;11099;41.564;23.296;2022-07-06T01:43:47;11.55;;;10.45;;
21868;SDS011;11099;41.564;23.296;2022-07-06T01:46:13;10.93;;;9.82;;
21868;SDS011;11099;41.564;23.296;2022-07-06T01:48:39;9.38;;;8.55;;
21868;SDS011;11099;41.564;23.296;2022-07-06T01:51:04;9.23;;;8.32;;
21868;SDS011;11099;41.564;23.296;2022-07-06T01:53:31;10.25;;;8.70;;
21868;SDS011;11099;41.564;23.296;2022-07-06T01:55:56;9.63;;;8.80;;
21868;SDS011;11099;41.564;23.296;2022-07-06T01:58:22;9.52;;;8.50;;
21868;SDS011;11099;41.564;23.296;2022-07-06T02:00:47;8.77;;;7.90;;
21868;SDS011;11099;41.564;23.296;2022-07-06T02:03:13;9.75;;;8.75;;
21868;SDS011;11099;41.564;23.296;2022-07-06T02:05:39;9.48;;;8.57;;
21868;SDS011;11099;41.564;23.296;2022-07-06T02:08:05;10.57;;;9.45;;
21868;SDS011;11099;41.564;23.296;2022-07-06T02:10:30;9.63;;;8.73;;
21868;SDS011;11099;41.564;23.296;2022-07-06T02:12:56;9.10;;;8.23;;
21868;SDS011;11099;41.564;23.296;2022-07-06T02:15:21;9.50;;;8.65;;
21868;SDS011;11099;41.564;23.296;2022-07-06T02:17:47;9.90;;;8.90;;
21868;SDS011;11099;41.564;23.296;2022-07-06T02:20:13;10.23;;;9.20;;
21868;SDS011;11099;41.564;23.296;2022-07-06T02:22:38;9.38;;;8.48;;
21868;SDS011;11099;41.564;23.296;2022-07-06T02:25:04;9.55;;;8.65;;
21868;SDS011;11099;41.564;23.296;2022-07-06T02:27:30;9.38;;;8.50;;
21868;SDS011;11099;41.564;23.296;2022-07-06T02:29:56;10.70;;;9.65;;
21868;SDS011;11099;41.564;23.296;2022-07-06T02:32:21;9.77;;;8.93;;
21868;SDS011;11099;41.564;23.296;2022-07-06T02:34:47;11.98;;;9.18;;
21868;SDS011;11099;41.564;23.296;2022-07-06T02:37:12;12.48;;;8.90;;
21868;SDS011;11099;41.564;23.296;2022-07-06T02:39:38;9.48;;;8.57;;
21868;SDS011;11099;41.564;23.296;2022-07-06T02:42:05;10.57;;;8.63;;
21868;SDS011;11099;41.564;23.296;2022-07-06T02:44:31;11.10;;;9.27;;
21868;SDS011;11099;41.564;23.296;2022-07-06T02:46:57;11.20;;;10.10;;
21868;SDS011;11099;41.564;23.296;2022-07-06T02:49:25;10.18;;;9.13;;
21868;SDS011;11099;41.564;23.296;2022-07-06T02:51:54;10.98;;;9.88;;
21868;SDS011;11099;41.564;23.296;2022-07-06T02:54:19;11.00;;;9.93;;
21868;SDS011;11099;41.564;23.296;2022-07-06T02:56:45;10.32;;;9.38;;
21868;SDS011;11099;41.564;23.296;2022-07-06T02:59:16;10.73;;;9.63;;
21868;SDS011;11099;41.564;23.296;2022-07-06T03:01:42;15.27;;;9.77;;
21868;SDS011;11099;41.564;23.296;2022-07-06T03:04:07;10.68;;;8.88;;
21868;SDS011;11099;41.564;23.296;2022-07-06T03:06:33;10.70;;;9.70;;
21868;SDS011;11099;41.564;23.296;2022-07-06T03:08:58;10.50;;;9.63;;
21868;SDS011;11099;41.564;23.296;2022-07-06T03:11:24;10.52;;;9.60;;
21868;SDS011;11099;41.564;23.296;2022-07-06T03:13:49;12.13;;;9.48;;
21868;SDS011;11099;41.564;23.296;2022-07-06T03:16:15;11.55;;;8.52;;
21868;SDS011;11099;41.564;23.296;2022-07-06T03:18:40;9.52;;;8.73;;
21868;SDS011;11099;41.564;23.296;2022-07-06T03:21:06;9.95;;;8.90;;
21868;SDS011;11099;41.564;23.296;2022-07-06T03:23:32;10.80;;;9.65;;
21868;SDS011;11099;41.564;23.296;2022-07-06T03:25:57;14.85;;;10.13;;
21868;SDS011;11099;41.564;23.296;2022-07-06T03:28:23;10.23;;;7.63;;
21868;SDS011;11099;41.564;23.296;2022-07-06T03:30:48;8.75;;;7.88;;
21868;SDS011;11099;41.564;23.296;2022-07-06T03:33:14;9.10;;;8.20;;
21868;SDS011;11099;41.564;23.296;2022-07-06T03:35:39;10.73;;;8.18;;
21868;SDS011;11099;41.564;23.296;2022-07-06T03:38:05;9.68;;;8.63;;
21868;SDS011;11099;41.564;23.296;2022-07-06T03:40:30;9.60;;;8.18;;
21868;SDS011;11099;41.564;23.296;2022-07-06T03:42:56;9.43;;;8.55;;
21868;SDS011;11099;41.564;23.296;2022-07-06T03:45:22;10.73;;;9.32;;
21868;SDS011;11099;41.564;23.296;2022-07-06T03:47:47;11.15;;;8.70;;
21868;SDS011;11099;41.564;23.296;2022-07-06T03:50:13;9.23;;;8.43;;
21868;SDS011;11099;41.564;23.296;2022-07-06T03:52:38;11.43;;;8.23;;
21868;SDS011;11099;41.564;23.296;2022-07-06T03:55:08;10.60;;;8.43;;
21868;SDS011;11099;41.564;23.296;2022-07-06T03:57:35;9.55;;;8.65;;
21868;SDS011;11099;41.564;23.296;2022-07-06T04:00:01;10.70;;;8.38;;
21868;SDS011;11099;41.564;23.296;2022-07-06T04:02:27;8.02;;;7.32;;
21868;SDS011;11099;41.564;23.296;2022-07-06T04:04:53;9.10;;;7.50;;
21868;SDS011;11099;41.564;23.296;2022-07-06T04:07:18;8.23;;;7.47;;
21868;SDS011;11099;41.564;23.296;2022-07-06T04:09:44;9.35;;;7.10;;
21868;SDS011;11099;41.564;23.296;2022-07-06T04:12:10;15.10;;;8.23;;
21868;SDS011;11099;41.564;23.296;2022-07-06T04:14:35;9.82;;;8.10;;
21868;SDS011;11099;41.564;23.296;2022-07-06T04:17:01;10.45;;;8.07;;
21868;SDS011;11099;41.564;23.296;2022-07-06T04:19:50;12.23;;;7.78;;
21868;SDS011;11099;41.564;23.296;2022-07-06T04:22:15;12.63;;;8.60;;
21868;SDS011;11099;41.564;23.296;2022-07-06T04:24:41;16.35;;;8.10;;
21868;SDS011;11099;41.564;23.296;2022-07-06T04:27:07;11.32;;;7.57;;
21868;SDS011;11099;41.564;23.296;2022-07-06T04:29:32;9.40;;;7.20;;
21868;SDS011;11099;41.564;23.296;2022-07-06T04:31:58;11.57;;;7.10;;
21868;SDS011;11099;41.564;23.296;2022-07-06T04:34:23;8.95;;;7.85;;
21868;SDS011;11099;41.564;23.296;2022-07-06T04:36:49;10.68;;;7.00;;
21868;SDS011;11099;41.564;23.296;2022-07-06T04:39:14;8.88;;;7.13;;
21868;SDS011;11099;41.564;23.296;2022-07-06T04:41:40;8.25;;;7.43;;
21868;SDS011;11099;41.564;23.296;2022-07-06T04:44:05;11.88;;;6.82;;
21868;SDS011;11099;41.564;23.296;2022-07-06T04:46:31;8.07;;;7.32;;
21868;SDS011;11099;41.564;23.296;2022-07-06T04:48:56;12.88;;;7.70;;
21868;SDS011;11099;41.564;23.296;2022-07-06T04:51:22;9.63;;;8.32;;
21868;SDS011;11099;41.564;23.296;2022-07-06T04:53:48;11.18;;;7.55;;
21868;SDS011;11099;41.564;23.296;2022-07-06T04:56:13;8.68;;;7.18;;
21868;SDS011;11099;41.564;23.296;2022-07-06T04:58:39;7.95;;;7.30;;
21868;SDS011;11099;41.564;23.296;2022-07-06T05:01:05;8.55;;;7.70;;
21868;SDS011;11099;41.564;23.296;2022-07-06T05:03:31;8.75;;;8.05;;
21868;SDS011;11099;41.564;23.296;2022-07-06T05:05:56;11.00;;;7.88;;
21868;SDS011;11099;41.564;23.296;2022-07-06T05:08:22;8.50;;;7.55;;
21868;SDS011;11099;41.564;23.296;2022-07-06T05:10:48;9.07;;;7.90;;
21868;SDS011;11099;41.564;23.296;2022-07-06T05:13:13;9.60;;;8.27;;
21868;SDS011;11099;41.564;23.296;2022-07-06T05:15:39;9.60;;;7.90;;
21868;SDS011;11099;41.564;23.296;2022-07-06T05:18:04;10.85;;;8.73;;
21868;SDS011;11099;41.564;23.296;2022-07-06T05:20:30;11.05;;;8.05;;
21868;SDS011;11099;41.564;23.296;2022-07-06T05:22:56;14.38;;;8.32;;
21868;SDS011;11099;41.564;23.296;2022-07-06T05:25:21;9.15;;;8.25;;
21868;SDS011;11099;41.564;23.296;2022-07-06T05:27:47;14.20;;;8.85;;
21868;SDS011;11099;41.564;23.296;2022-07-06T05:30:12;15.38;;;8.77;;
21868;SDS011;11099;41.564;23.296;2022-07-06T05:32:40;14.20;;;9.07;;
21868;SDS011;11099;41.564;23.296;2022-07-06T05:35:06;15.52;;;8.98;;
21868;SDS011;11099;41.564;23.296;2022-07-06T05:37:32;15.70;;;8.80;;
21868;SDS011;11099;41.564;23.296;2022-07-06T05:39:58;12.48;;;9.13;;
21868;SDS011;11099;41.564;23.296;2022-07-06T05:42:24;16.35;;;9.65;;
21868;SDS011;11099;41.564;23.296;2022-07-06T05:44:53;12.75;;;9.25;;
21868;SDS011;11099;41.564;23.296;2022-07-06T05:47:20;13.50;;;9.57;;
21868;SDS011;11099;41.564;23.296;2022-07-06T05:50:04;21.42;;;10.88;;
21868;SDS011;11099;41.564;23.296;2022-07-06T05:52:43;15.98;;;9.25;;
21868;SDS011;11099;41.564;23.296;2022-07-06T05:55:10;11.50;;;9.93;;
21868;SDS011;11099;41.564;23.296;2022-07-06T05:57:37;14.27;;;9.27;;
21868;SDS011;11099;41.564;23.296;2022-07-06T06:00:04;12.00;;;9.18;;
21868;SDS011;11099;41.564;23.296;2022-07-06T06:02:40;15.55;;;8.75;;
21868;SDS011;11099;41.564;23.296;2022-07-06T06:05:09;11.98;;;8.43;;
21868;SDS011;11099;41.564;23.296;2022-07-06T06:07:39;10.02;;;9.02;;
21868;SDS011;11099;41.564;23.296;2022-07-06T06:10:06;11.35;;;9.32;;
21868;SDS011;11099;41.564;23.296;2022-07-06T06:12:34;14.85;;;9.05;;
21868;SDS011;11099;41.564;23.296;2022-07-06T06:15:00;8.77;;;7.50;;
21868;SDS011;11099;41.564;23.296;2022-07-06T06:17:26;8.88;;;7.68;;
21868;SDS011;11099;41.564;23.296;2022-07-06T06:19:52;10.77;;;8.93;;
21868;SDS011;11099;41.564;23.296;2022-07-06T06:22:18;10.68;;;8.90;;
21868;SDS011;11099;41.564;23.296;2022-07-06T06:24:43;10.50;;;8.60;;
21868;SDS011;11099;41.564;23.296;2022-07-06T06:27:09;13.13;;;9.07;;
21868;SDS011;11099;41.564;23.296;2022-07-06T06:29:35;11.60;;;8.90;;
21868;SDS011;11099;41.564;23.296;2022-07-06T06:32:00;10.27;;;8.95;;
21868;SDS011;11099;41.564;23.296;2022-07-06T06:34:26;9.55;;;8.45;;
21868;SDS011;11099;41.564;23.296;2022-07-06T06:36:51;10.02;;;8.77;;
21868;SDS011;11099;41.564;23.296;2022-07-06T06:39:17;15.73;;;9.38;;
21868;SDS011;11099;41.564;23.296;2022-07-06T06:41:42;15.02;;;9.32;;
21868;SDS011;11099;41.564;23.296;2022-07-06T06:44:08;14.20;;;9.60;;
21868;SDS011;11099;41.564;23.296;2022-07-06T06:46:34;15.63;;;9.93;;
21868;SDS011;11099;41.564;23.296;2022-07-06T06:49:00;12.38;;;10.38;;
21868;SDS011;11099;41.564;23.296;2022-07-06T06:51:26;12.68;;;9.32;;
21868;SDS011;11099;41.564;23.296;2022-07-06T06:53:51;11.57;;;9.32;;
21868;SDS011;11099;41.564;23.296;2022-07-06T06:56:17;14.15;;;9.70;;
21868;SDS011;11099;41.564;23.296;2022-07-06T06:58:43;15.98;;;9.02;;
21868;SDS011;11099;41.564;23.296;2022-07-06T07:01:08;12.10;;;8.30;;
21868;SDS011;11099;41.564;23.296;2022-07-06T07:03:34;19.65;;;9.18;;
21868;SDS011;11099;41.564;23.296;2022-07-06T07:06:00;11.77;;;8.30;;
21868;SDS011;11099;41.564;23.296;2022-07-06T07:08:25;10.43;;;8.80;;
21868;SDS011;11099;41.564;23.296;2022-07-06T07:10:51;12.57;;;8.32;;
21868;SDS011;11099;41.564;23.296;2022-07-06T07:13:17;10.85;;;8.73;;
21868;SDS011;11099;41.564;23.296;2022-07-06T07:15:43;16.00;;;7.20;;
21868;SDS011;11099;41.564;23.296;2022-07-06T07:18:08;10.13;;;7.18;;
21868;SDS011;11099;41.564;23.296;2022-07-06T07:20:34;7.85;;;6.53;;
21868;SDS011;11099;41.564;23.296;2022-07-06T07:23:00;10.23;;;6.68;;
21868;SDS011;11099;41.564;23.296;2022-07-06T07:25:26;7.97;;;7.25;;
21868;SDS011;11099;41.564;23.296;2022-07-06T07:27:52;9.48;;;6.18;;
21868;SDS011;11099;41.564;23.296;2022-07-06T07:30:18;10.80;;;6.15;;
21868;SDS011;11099;41.564;23.296;2022-07-06T07:32:44;10.88;;;6.70;;
21868;SDS011;11099;41.564;23.296;2022-07-06T07:35:10;8.77;;;5.85;;
21868;SDS011;11099;41.564;23.296;2022-07-06T07:37:36;11.45;;;6.82;;
21868;SDS011;11099;41.564;23.296;2022-07-06T07:40:01;8.50;;;6.45;;
21868;SDS011;11099;41.564;23.296;2022-07-06T07:42:27;11.60;;;6.40;;
21868;SDS011;11099;41.564;23.296;2022-07-06T07:44:53;9.98;;;7.20;;
21868;SDS011;11099;41.564;23.296;2022-07-06T07:47:19;9.98;;;6.32;;
21868;SDS011;11099;41.564;23.296;2022-07-06T07:49:44;13.02;;;6.70;;
21868;SDS011;11099;41.564;23.296;2022-07-06T07:52:10;13.27;;;6.80;;
21868;SDS011;11099;41.564;23.296;2022-07-06T07:54:35;8.93;;;6.65;;
21868;SDS011;11099;41.564;23.296;2022-07-06T07:57:01;11.35;;;6.70;;
21868;SDS011;11099;41.564;23.296;2022-07-06T07:59:27;10.50;;;6.57;;
21868;SDS011;11099;41.564;23.296;2022-07-06T08:01:53;11.18;;;6.55;;
21868;SDS011;11099;41.564;23.296;2022-07-06T08:04:18;9.05;;;6.32;;
21868;SDS011;11099;41.564;23.296;2022-07-06T08:06:44;8.23;;;6.43;;
21868;SDS011;11099;41.564;23.296;2022-07-06T08:09:10;8.95;;;7.32;;
21868;SDS011;11099;41.564;23.296;2022-07-06T08:11:35;8.95;;;7.30;;
21868;SDS011;11099;41.564;23.296;2022-07-06T08:14:01;8.43;;;7.57;;
21868;SDS011;11099;41.564;23.296;2022-07-06T08:16:28;8.93;;;8.05;;
21868;SDS011;11099;41.564;23.296;2022-07-06T08:18:54;14.75;;;8.02;;
21868;SDS011;11099;41.564;23.296;2022-07-06T08:21:19;8.45;;;7.45;;
21868;SDS011;11099;41.564;23.296;2022-07-06T08:23:45;10.15;;;7.95;;
21868;SDS011;11099;41.564;23.296;2022-07-06T08:26:11;9.50;;;7.85;;
21868;SDS011;11099;41.564;23.296;2022-07-06T08:28:36;9.40;;;8.43;;
21868;SDS011;11099;41.564;23.296;2022-07-06T08:31:02;8.45;;;7.65;;
21868;SDS011;11099;41.564;23.296;2022-07-06T08:33:28;10.18;;;8.18;;
21868;SDS011;11099;41.564;23.296;2022-07-06T08:35:53;9.77;;;8.55;;
21868;SDS011;11099;41.564;23.296;2022-07-06T08:38:19;11.45;;;9.13;;
21868;SDS011;11099;41.564;23.296;2022-07-06T08:40:46;14.75;;;8.25;;
21868;SDS011;11099;41.564;23.296;2022-07-06T08:45:39;8.90;;;8.10;;
21868;SDS011;11099;41.564;23.296;2022-07-06T08:48:08;9.73;;;8.73;;
21868;SDS011;11099;41.564;23.296;2022-07-06T08:50:34;12.07;;;7.93;;
21868;SDS011;11099;41.564;23.296;2022-07-06T08:53:00;9.20;;;8.30;;
21868;SDS011;11099;41.564;23.296;2022-07-06T08:55:26;10.80;;;7.95;;
21868;SDS011;11099;41.564;23.296;2022-07-06T08:57:53;8.40;;;7.60;;
21868;SDS011;11099;41.564;23.296;2022-07-06T09:00:20;7.30;;;6.63;;
21868;SDS011;11099;41.564;23.296;2022-07-06T09:02:46;7.18;;;6.47;;
21868;SDS011;11099;41.564;23.296;2022-07-06T09:05:16;6.80;;;6.18;;
21868;SDS011;11099;41.564;23.296;2022-07-06T09:07:44;7.20;;;6.50;;
21868;SDS011;11099;41.564;23.296;2022-07-06T09:10:14;7.63;;;6.40;;
21868;SDS011;11099;41.564;23.296;2022-07-06T09:12:42;12.18;;;6.40;;
21868;SDS011;11099;41.564;23.296;2022-07-06T09:15:07;7.25;;;6.38;;
21868;SDS011;11099;41.564;23.296;2022-07-06T09:17:37;8.55;;;6.60;;
21868;SDS011;11099;41.564;23.296;2022-07-06T09:20:04;7.43;;;6.68;;
21868;SDS011;11099;41.564;23.296;2022-07-06T09:22:33;11.73;;;6.50;;
21868;SDS011;11099;41.564;23.296;2022-07-06T09:25:13;7.20;;;6.43;;
21868;SDS011;11099;41.564;23.296;2022-07-06T09:27:41;10.30;;;6.80;;
21868;SDS011;11099;41.564;23.296;2022-07-06T09:30:13;8.40;;;5.60;;
21868;SDS011;11099;41.564;23.296;2022-07-06T09:32:40;5.95;;;5.00;;
21868;SDS011;11099;41.564;23.296;2022-07-06T09:35:07;6.32;;;4.80;;
21868;SDS011;11099;41.564;23.296;2022-07-06T09:37:33;7.18;;;5.75;;
21868;SDS011;11099;41.564;23.296;2022-07-06T09:39:59;5.85;;;5.18;;
21868;SDS011;11099;41.564;23.296;2022-07-06T09:42:25;7.28;;;5.32;;
21868;SDS011;11099;41.564;23.296;2022-07-06T09:44:51;5.60;;;5.00;;
21868;SDS011;11099;41.564;23.296;2022-07-06T09:47:17;10.10;;;5.82;;
21868;SDS011;11099;41.564;23.296;2022-07-06T09:49:44;10.40;;;5.57;;
21868;SDS011;11099;41.564;23.296;2022-07-06T09:52:11;6.07;;;5.53;;
21868;SDS011;11099;41.564;23.296;2022-07-06T09:54:37;7.15;;;6.03;;
21868;SDS011;11099;41.564;23.296;2022-07-06T09:57:04;6.65;;;6.07;;
21868;SDS011;11099;41.564;23.296;2022-07-06T09:59:31;7.00;;;6.32;;
21868;SDS011;11099;41.564;23.296;2022-07-06T10:02:01;5.85;;;5.35;;
21868;SDS011;11099;41.564;23.296;2022-07-06T10:04:28;7.15;;;6.20;;
21868;SDS011;11099;41.564;23.296;2022-07-06T10:06:55;6.65;;;5.68;;
21868;SDS011;11099;41.564;23.296;2022-07-06T10:09:23;6.68;;;6.07;;
21868;SDS011;11099;41.564;23.296;2022-07-06T10:11:51;6.60;;;5.97;;
21868;SDS011;11099;41.564;23.296;2022-07-06T10:14:25;7.27;;;6.57;;
21868;SDS011;11099;41.564;23.296;2022-07-06T10:16:54;7.13;;;6.38;;
21868;SDS011;11099;41.564;23.296;2022-07-06T10:19:24;9.65;;;6.88;;
21868;SDS011;11099;41.564;23.296;2022-07-06T10:21:51;8.80;;;6.78;;
21868;SDS011;11099;41.564;23.296;2022-07-06T10:24:17;9.82;;;7.50;;
21868;SDS011;11099;41.564;23.296;2022-07-06T10:26:44;9.73;;;7.23;;
21868;SDS011;11099;41.564;23.296;2022-07-06T10:29:11;10.43;;;7.80;;
21868;SDS011;11099;41.564;23.296;2022-07-06T10:31:45;8.10;;;7.28;;
21868;SDS011;11099;41.564;23.296;2022-07-06T10:34:14;8.02;;;7.22;;
21868;SDS011;11099;41.564;23.296;2022-07-06T10:36:44;11.40;;;7.72;;
21868;SDS011;11099;41.564;23.296;2022-07-06T10:39:13;16.80;;;8.55;;
21868;SDS011;11099;41.564;23.296;2022-07-06T10:41:57;11.15;;;8.23;;
21868;SDS011;11099;41.564;23.296;2022-07-06T10:44:23;10.80;;;8.32;;
21868;SDS011;11099;41.564;23.296;2022-07-06T10:49:23;10.25;;;8.02;;
21868;SDS011;11099;41.564;23.296;2022-07-06T10:51:51;10.15;;;8.05;;
21868;SDS011;11099;41.564;23.296;2022-07-06T10:54:18;11.15;;;7.43;;
21868;SDS011;11099;41.564;23.296;2022-07-06T10:56:50;10.73;;;6.65;;
21868;SDS011;11099;41.564;23.296;2022-07-06T10:59:23;7.90;;;7.20;;
21868;SDS011;11099;41.564;23.296;2022-07-06T11:04:40;8.02;;;6.95;;
21868;SDS011;11099;41.564;23.296;2022-07-06T11:07:10;12.82;;;6.70;;
21868;SDS011;11099;41.564;23.296;2022-07-06T11:09:37;7.60;;;6.90;;
21868;SDS011;11099;41.564;23.296;2022-07-06T11:12:17;9.10;;;6.40;;
21868;SDS011;11099;41.564;23.296;2022-07-06T11:14:44;6.72;;;6.03;;
21868;SDS011;11099;41.564;23.296;2022-07-06T11:17:11;11.10;;;6.70;;
21868;SDS011;11099;41.564;23.296;2022-07-06T11:19:37;7.00;;;6.43;;
21868;SDS011;11099;41.564;23.296;2022-07-06T11:24:35;7.85;;;6.50;;
21868;SDS011;11099;41.564;23.296;2022-07-06T11:27:03;7.15;;;5.90;;
21868;SDS011;11099;41.564;23.296;2022-07-06T11:29:32;6.90;;;6.40;;
21868;SDS011;11099;41.564;23.296;2022-07-06T11:32:04;7.43;;;6.70;;
21868;SDS011;11099;41.564;23.296;2022-07-06T11:34:34;7.82;;;6.88;;
21868;SDS011;11099;41.564;23.296;2022-07-06T11:39:41;6.83;;;6.07;;
21868;SDS011;11099;41.564;23.296;2022-07-06T11:42:10;7.70;;;6.15;;
21868;SDS011;11099;41.564;23.296;2022-07-06T11:44:41;6.55;;;5.95;;
21868;SDS011;11099;41.564;23.296;2022-07-06T11:47:08;7.97;;;6.90;;
21868;SDS011;11099;41.564;23.296;2022-07-06T11:49:35;7.68;;;6.97;;
21868;SDS011;11099;41.564;23.296;2022-07-06T11:52:08;6.43;;;5.87;;
21868;SDS011;11099;41.564;23.296;2022-07-06T11:54:36;7.95;;;7.25;;
21868;SDS011;11099;41.564;23.296;2022-07-06T11:57:02;9.30;;;8.15;;
21868;SDS011;11099;41.564;23.296;2022-07-06T11:59:32;8.73;;;7.93;;
21868;SDS011;11099;41.564;23.296;2022-07-06T12:02:05;8.20;;;7.40;;
21868;SDS011;11099;41.564;23.296;2022-07-06T12:04:36;9.90;;;7.25;;
21868;SDS011;11099;41.564;23.296;2022-07-06T12:07:07;14.50;;;7.78;;
21868;SDS011;11099;41.564;23.296;2022-07-06T12:09:37;8.15;;;7.00;;
21868;SDS011;11099;41.564;23.296;2022-07-06T12:12:05;7.20;;;6.55;;
21868;SDS011;11099;41.564;23.296;2022-07-06T12:14:32;7.60;;;6.90;;
21868;SDS011;11099;41.564;23.296;2022-07-06T12:17:03;7.00;;;6.40;;
21868;SDS011;11099;41.564;23.296;2022-07-06T12:19:30;7.70;;;6.90;;
21868;SDS011;11099;41.564;23.296;2022-07-06T12:21:56;11.20;;;6.90;;
21868;SDS011;11099;41.564;23.296;2022-07-06T12:24:25;7.47;;;6.53;;
21868;SDS011;11099;41.564;23.296;2022-07-06T12:26:58;12.98;;;6.50;;
21868;SDS011;11099;41.564;23.296;2022-07-06T12:29:34;7.20;;;6.10;;
21868;SDS011;11099;41.564;23.296;2022-07-06T12:32:00;6.82;;;6.32;;
21868;SDS011;11099;41.564;23.296;2022-07-06T12:34:27;5.75;;;5.22;;
21868;SDS011;11099;41.564;23.296;2022-07-06T12:36:56;6.40;;;5.80;;
21868;SDS011;11099;41.564;23.296;2022-07-06T12:39:27;6.45;;;5.95;;
21868;SDS011;11099;41.564;23.296;2022-07-06T12:41:54;11.48;;;6.60;;
21868;SDS011;11099;41.564;23.296;2022-07-06T12:44:24;8.43;;;7.70;;
21868;SDS011;11099;41.564;23.296;2022-07-06T12:47:11;8.82;;;7.90;;
21868;SDS011;11099;41.564;23.296;2022-07-06T12:49:37;6.05;;;5.55;;
21868;SDS011;11099;41.564;23.296;2022-07-06T12:57:04;7.53;;;6.93;;
21868;SDS011;11099;41.564;23.296;2022-07-06T12:59:31;7.00;;;6.50;;
21868;SDS011;11099;41.564;23.296;2022-07-06T13:01:59;7.85;;;6.78;;
21868;SDS011;11099;41.564;23.296;2022-07-06T13:04:27;7.60;;;7.00;;
21868;SDS011;11099;41.564;23.296;2022-07-06T13:06:55;7.10;;;6.50;;
21868;SDS011;11099;41.564;23.296;2022-07-06T13:09:21;7.50;;;6.90;;
21868;SDS011;11099;41.564;23.296;2022-07-06T13:11:47;7.20;;;6.57;;
21868;SDS011;11099;41.564;23.296;2022-07-06T13:14:14;8.77;;;6.50;;
21868;SDS011;11099;41.564;23.296;2022-07-06T13:16:41;8.57;;;6.60;;
21868;SDS011;11099;41.564;23.296;2022-07-06T13:19:08;7.57;;;5.97;;
21868;SDS011;11099;41.564;23.296;2022-07-06T13:21:34;6.50;;;6.00;;
21868;SDS011;11099;41.564;23.296;2022-07-06T13:24:00;7.43;;;6.30;;
21868;SDS011;11099;41.564;23.296;2022-07-06T13:26:26;7.00;;;6.43;;
21868;SDS011;11099;41.564;23.296;2022-07-06T13:28:51;6.85;;;6.25;;
21868;SDS011;11099;41.564;23.296;2022-07-06T13:31:17;8.40;;;6.70;;
21868;SDS011;11099;41.564;23.296;2022-07-06T13:33:43;6.68;;;6.05;;
21868;SDS011;11099;41.564;23.296;2022-07-06T13:36:08;7.22;;;6.65;;
21868;SDS011;11099;41.564;23.296;2022-07-06T13:38:34;7.32;;;6.55;;
21868;SDS011;11099;41.564;23.296;2022-07-06T13:40:59;8.80;;;7.07;;
21868;SDS011;11099;41.564;23.296;2022-07-06T13:43:25;7.57;;;6.45;;
21868;SDS011;11099;41.564;23.296;2022-07-06T13:45:51;7.32;;;6.72;;
21868;SDS011;11099;41.564;23.296;2022-07-06T13:48:16;8.43;;;6.97;;
21868;SDS011;11099;41.564;23.296;2022-07-06T13:50:42;7.57;;;6.30;;
21868;SDS011;11099;41.564;23.296;2022-07-06T13:53:07;7.53;;;6.93;;
21868;SDS011;11099;41.564;23.296;2022-07-06T13:55:33;7.75;;;6.93;;
21868;SDS011;11099;41.564;23.296;2022-07-06T13:57:59;8.30;;;7.13;;
21868;SDS011;11099;41.564;23.296;2022-07-06T14:00:25;7.43;;;6.82;;
21868;SDS011;11099;41.564;23.296;2022-07-06T14:02:51;7.43;;;6.82;;
21868;SDS011;11099;41.564;23.296;2022-07-06T14:05:16;7.30;;;6.60;;
21868;SDS011;11099;41.564;23.296;2022-07-06T14:07:42;6.38;;;5.78;;
21868;SDS011;11099;41.564;23.296;2022-07-06T14:10:07;6.75;;;5.75;;
21868;SDS011;11099;41.564;23.296;2022-07-06T14:12:33;6.70;;;6.00;;
21868;SDS011;11099;41.564;23.296;2022-07-06T14:14:59;6.45;;;5.90;;
21868;SDS011;11099;41.564;23.296;2022-07-06T14:17:25;7.85;;;7.03;;
21868;SDS011;11099;41.564;23.296;2022-07-06T14:19:51;7.47;;;6.65;;
21868;SDS011;11099;41.564;23.296;2022-07-06T14:22:17;8.13;;;7.32;;
21868;SDS011;11099;41.564;23.296;2022-07-06T14:24:43;8.00;;;7.30;;
21868;SDS011;11099;41.564;23.296;2022-07-06T14:27:08;7.53;;;6.75;;
21868;SDS011;11099;41.564;23.296;2022-07-06T14:29:34;8.07;;;7.00;;
21868;SDS011;11099;41.564;23.296;2022-07-06T14:32:00;7.60;;;6.90;;
21868;SDS011;11099;41.564;23.296;2022-07-06T14:34:25;7.30;;;6.60;;
21868;SDS011;11099;41.564;23.296;2022-07-06T14:36:51;6.93;;;6.32;;
21868;SDS011;11099;41.564;23.296;2022-07-06T14:39:17;7.20;;;6.60;;
21868;SDS011;11099;41.564;23.296;2022-07-06T14:41:42;7.68;;;6.50;;
21868;SDS011;11099;41.564;23.296;2022-07-06T14:44:08;7.07;;;6.43;;